Frontenac, Missouri
Current Conditions -  °F | °C
As of 10:51 PM on Monday 20 Oct 2014 (Local Time) from KSTL Reporting Station
Clear Clear  
Wind Chill: 54°   Ceiling: Unl
Heat Index: 54°   Visibility: 10mi
Dew Point: 46°   Wind: 5mph
Humidity: 75%   Direction: 230°SW
Pressure: 30.03"   Gusts: NA
Location:  38.6172°N, 90.4443°W
Report Text: KSTL 210351Z 23004KT 10SM CLR 12/08 A3003 RMK AO2 SLP166 T01220078
Loading
Personal Weather Stations






























Interactive Weather Map
Tropical Storm Tracking
New forecast layout! Learn more

10-Day Weather Forecast

Advertisements
Track Severe Weather on mobile